Oslo/Gardermoen Airport

Airport
ICAO code: 
ENGM
IATA Code: 
OSL
Summary
ICAO Region: 
EUR
Territory: 
Location: 
Gardermoen, Ullensaker, Akershus,
Serving: 
Oslo
Elevation: 
681 ft
Coordinates: 
Aerial View: 
60° 11' 39.065" N, 11° 6' 1.48" E
Airport LOS: 
Parallel Runway Operation
Airport RI: 
Runway Misidentification
Metar
Observation
ENGM 021320Z 00000KT CAVOK M09/M10 Q0993 NOSIG
Station
Oslo / Gardermoen
Date/Time
2021-12-02 13:20:00
Wind direction
Wind speed
00 kts
Lowest cloud amount
clouds and visibility OK
Temperature
-9°C
Dew point
-10°C
Humidity
92%
QNH
993 hPa
Weather condition
n/a

Description

International airport serving the Norwegian capital.

Climatology

Humid Continental climate (Köppen climate classification Dfb) - Variable weather patterns and a large seasonal temperature variance. Summers are often warm and humid with frequent thunderstorms and winters can be very cold with frequent snowfall and persistent snow cover.

In the winter, steam fog sometimes forms over the lakes to the north of the airfield and, if there is a light Northerly wind, the fog gets blown over the airfield often without much notice.

Runways

Designator Length Width Surface Rops
01R/19L 2950 45 ASP Yes/Yes
01L/19R 3600 45 ASP Yes/Yes

SKYbrary Partners:

Safety knowledge contributed by: